sensor_id;sensor_type;location;lat;lon;timestamp;pressure;altitude;pressure_sealevel;temperature;humidity
50854;BME280;44154;45.506;-122.806;2023-02-28T00:01:01;98705.66;;;25.11;30.69
50854;BME280;44154;45.506;-122.806;2023-02-28T00:03:27;98701.38;;;25.64;30.07
50854;BME280;44154;45.506;-122.806;2023-02-28T00:05:54;98682.13;;;25.78;29.75
50854;BME280;44154;45.506;-122.806;2023-02-28T00:08:20;98682.69;;;25.57;29.67
50854;BME280;44154;45.506;-122.806;2023-02-28T00:10:46;98651.28;;;25.18;29.79
50854;BME280;44154;45.506;-122.806;2023-02-28T00:13:12;98673.44;;;25.08;30.34
50854;BME280;44154;45.506;-122.806;2023-02-28T00:15:38;98667.31;;;24.88;30.70
50854;BME280;44154;45.506;-122.806;2023-02-28T00:18:04;98669.75;;;24.76;30.98
50854;BME280;44154;45.506;-122.806;2023-02-28T00:20:31;98667.25;;;24.66;31.14
50854;BME280;44154;45.506;-122.806;2023-02-28T00:22:57;98684.34;;;24.57;31.26
50854;BME280;44154;45.506;-122.806;2023-02-28T00:25:25;98691.38;;;24.64;31.84
50854;BME280;44154;45.506;-122.806;2023-02-28T00:27:52;98683.22;;;24.58;31.58
50854;BME280;44154;45.506;-122.806;2023-02-28T00:30:21;98685.69;;;24.60;31.39
50854;BME280;44154;45.506;-122.806;2023-02-28T00:32:47;98684.94;;;24.54;31.70
50854;BME280;44154;45.506;-122.806;2023-02-28T00:35:14;98682.66;;;24.48;32.07
50854;BME280;44154;45.506;-122.806;2023-02-28T00:37:40;98705.53;;;24.38;32.34
50854;BME280;44154;45.506;-122.806;2023-02-28T00:40:10;98698.03;;;24.30;32.42
50854;BME280;44154;45.506;-122.806;2023-02-28T00:42:38;98693.00;;;24.23;32.40
50854;BME280;44154;45.506;-122.806;2023-02-28T00:45:04;98687.91;;;24.16;32.47
50854;BME280;44154;45.506;-122.806;2023-02-28T00:47:31;98693.75;;;24.10;32.75
50854;BME280;44154;45.506;-122.806;2023-02-28T00:49:58;98688.91;;;24.06;33.12
50854;BME280;44154;45.506;-122.806;2023-02-28T00:52:24;98695.41;;;24.38;32.31
50854;BME280;44154;45.506;-122.806;2023-02-28T00:54:50;98672.06;;;24.97;31.57
50854;BME280;44154;45.506;-122.806;2023-02-28T00:57:16;98674.56;;;25.30;30.87
50854;BME280;44154;45.506;-122.806;2023-02-28T00:59:42;98670.53;;;25.27;31.04
50854;BME280;44154;45.506;-122.806;2023-02-28T01:02:08;98670.69;;;25.08;31.22
50854;BME280;44154;45.506;-122.806;2023-02-28T01:04:34;98675.19;;;24.90;31.44
50854;BME280;44154;45.506;-122.806;2023-02-28T01:07:01;98665.22;;;24.71;31.78
50854;BME280;44154;45.506;-122.806;2023-02-28T01:09:27;98672.91;;;24.55;32.32
50854;BME280;44154;45.506;-122.806;2023-02-28T01:11:53;98662.81;;;24.42;32.60
50854;BME280;44154;45.506;-122.806;2023-02-28T01:14:19;98662.19;;;24.31;32.82
50854;BME280;44154;45.506;-122.806;2023-02-28T01:16:46;98638.72;;;24.16;32.56
50854;BME280;44154;45.506;-122.806;2023-02-28T01:19:12;98650.44;;;24.17;32.65
50854;BME280;44154;45.506;-122.806;2023-02-28T01:21:38;98644.28;;;24.11;32.44
50854;BME280;44154;45.506;-122.806;2023-02-28T01:24:05;98634.38;;;24.01;32.55
50854;BME280;44154;45.506;-122.806;2023-02-28T01:26:31;98623.91;;;24.31;32.28
50854;BME280;44154;45.506;-122.806;2023-02-28T01:28:58;98633.59;;;25.02;31.51
50854;BME280;44154;45.506;-122.806;2023-02-28T01:31:24;98634.00;;;25.32;30.86
50854;BME280;44154;45.506;-122.806;2023-02-28T01:33:51;98593.59;;;24.92;30.76
50854;BME280;44154;45.506;-122.806;2023-02-28T01:36:22;98626.31;;;24.97;31.02
50854;BME280;44154;45.506;-122.806;2023-02-28T01:38:49;98623.75;;;24.78;31.26
50854;BME280;44154;45.506;-122.806;2023-02-28T01:41:19;98628.53;;;24.58;31.61
50854;BME280;44154;45.506;-122.806;2023-02-28T01:46:13;98630.91;;;24.37;31.90
50854;BME280;44154;45.506;-122.806;2023-02-28T01:48:48;98615.63;;;24.22;32.02
50854;BME280;44154;45.506;-122.806;2023-02-28T01:51:19;98610.38;;;24.12;32.24
50854;BME280;44154;45.506;-122.806;2023-02-28T01:53:51;98626.78;;;24.12;32.12
50854;BME280;44154;45.506;-122.806;2023-02-28T01:56:22;98623.53;;;24.10;33.01
50854;BME280;44154;45.506;-122.806;2023-02-28T01:58:51;98630.88;;;24.51;32.03
50854;BME280;44154;45.506;-122.806;2023-02-28T02:01:20;98628.03;;;25.07;31.18
50854;BME280;44154;45.506;-122.806;2023-02-28T02:03:53;98625.88;;;25.26;30.98
50854;BME280;44154;45.506;-122.806;2023-02-28T02:06:26;98631.63;;;25.16;31.10
50854;BME280;44154;45.506;-122.806;2023-02-28T02:08:53;98622.72;;;24.88;31.61
50854;BME280;44154;45.506;-122.806;2023-02-28T02:11:22;98635.81;;;24.77;31.81
50854;BME280;44154;45.506;-122.806;2023-02-28T02:16:55;98645.78;;;24.45;32.37
50854;BME280;44154;45.506;-122.806;2023-02-28T02:19:53;98655.63;;;24.32;32.47
50854;BME280;44154;45.506;-122.806;2023-02-28T02:26:05;98664.72;;;24.14;32.70
50854;BME280;44154;45.506;-122.806;2023-02-28T02:29:06;98663.41;;;24.11;33.03
50854;BME280;44154;45.506;-122.806;2023-02-28T02:31:47;98654.19;;;24.63;31.92
50854;BME280;44154;45.506;-122.806;2023-02-28T02:39:50;98664.44;;;24.93;31.17
50854;BME280;44154;45.506;-122.806;2023-02-28T02:42:27;98666.00;;;24.72;31.80
50854;BME280;44154;45.506;-122.806;2023-02-28T02:45:14;98664.22;;;24.53;32.17
50854;BME280;44154;45.506;-122.806;2023-02-28T02:47:43;98652.88;;;24.32;32.22
50854;BME280;44154;45.506;-122.806;2023-02-28T02:50:15;98655.81;;;24.22;32.45
50854;BME280;44154;45.506;-122.806;2023-02-28T02:52:48;98652.38;;;24.16;32.68
50854;BME280;44154;45.506;-122.806;2023-02-28T02:55:17;98659.66;;;24.07;33.03
50854;BME280;44154;45.506;-122.806;2023-02-28T02:57:54;98655.63;;;24.04;33.00
50854;BME280;44154;45.506;-122.806;2023-02-28T03:00:26;98656.81;;;24.40;32.86
50854;BME280;44154;45.506;-122.806;2023-02-28T03:02:55;98641.03;;;24.87;32.18
50854;BME280;44154;45.506;-122.806;2023-02-28T03:05:26;98645.81;;;25.18;31.64
50854;BME280;44154;45.506;-122.806;2023-02-28T03:07:53;98646.66;;;25.05;31.66
50854;BME280;44154;45.506;-122.806;2023-02-28T03:10:35;98646.53;;;24.87;31.98
50854;BME280;44154;45.506;-122.806;2023-02-28T03:18:36;98659.97;;;24.33;32.91
50854;BME280;44154;45.506;-122.806;2023-02-28T03:21:27;98654.81;;;24.18;33.17
50854;BME280;44154;45.506;-122.806;2023-02-28T03:24:27;98649.84;;;24.06;33.45
50854;BME280;44154;45.506;-122.806;2023-02-28T03:27:11;98662.50;;;24.02;33.39
50854;BME280;44154;45.506;-122.806;2023-02-28T03:29:47;98656.72;;;24.31;33.25
50854;BME280;44154;45.506;-122.806;2023-02-28T03:32:18;98648.25;;;24.83;32.77
50854;BME280;44154;45.506;-122.806;2023-02-28T03:34:58;98648.03;;;25.16;31.84
50854;BME280;44154;45.506;-122.806;2023-02-28T03:37:32;98647.66;;;25.09;31.86
50854;BME280;44154;45.506;-122.806;2023-02-28T03:40:12;98646.22;;;24.89;31.74
50854;BME280;44154;45.506;-122.806;2023-02-28T03:42:43;98649.59;;;24.72;32.26
50854;BME280;44154;45.506;-122.806;2023-02-28T03:45:13;98655.69;;;24.55;32.48
50854;BME280;44154;45.506;-122.806;2023-02-28T03:47:53;98653.28;;;24.39;32.63
50854;BME280;44154;45.506;-122.806;2023-02-28T03:50:24;98664.13;;;24.31;32.91
50854;BME280;44154;45.506;-122.806;2023-02-28T03:52:58;98664.81;;;24.22;33.98
50854;BME280;44154;45.506;-122.806;2023-02-28T03:55:32;98667.28;;;24.10;33.28
50854;BME280;44154;45.506;-122.806;2023-02-28T03:58:24;98665.25;;;24.16;33.26
50854;BME280;44154;45.506;-122.806;2023-02-28T04:01:00;98673.00;;;24.50;32.95
50854;BME280;44154;45.506;-122.806;2023-02-28T04:03:37;98652.72;;;24.79;32.43
50854;BME280;44154;45.506;-122.806;2023-02-28T04:06:06;98669.63;;;24.95;31.93
50854;BME280;44154;45.506;-122.806;2023-02-28T04:08:33;98663.56;;;24.84;31.74
50854;BME280;44154;45.506;-122.806;2023-02-28T04:11:21;98669.97;;;24.66;31.62
50854;BME280;44154;45.506;-122.806;2023-02-28T04:13:48;98671.72;;;24.48;31.64
50854;BME280;44154;45.506;-122.806;2023-02-28T04:16:14;98673.94;;;24.32;32.20
50854;BME280;44154;45.506;-122.806;2023-02-28T04:18:41;98678.59;;;24.17;32.06
50854;BME280;44154;45.506;-122.806;2023-02-28T04:21:09;98678.78;;;24.07;32.44
50854;BME280;44154;45.506;-122.806;2023-02-28T04:23:35;98681.41;;;23.98;32.49
50854;BME280;44154;45.506;-122.806;2023-02-28T04:26:02;98678.38;;;24.00;32.80
50854;BME280;44154;45.506;-122.806;2023-02-28T04:28:29;98676.59;;;24.23;32.84
50854;BME280;44154;45.506;-122.806;2023-02-28T04:31:04;98683.13;;;24.50;32.53
50854;BME280;44154;45.506;-122.806;2023-02-28T04:33:31;98686.16;;;24.76;31.87
50854;BME280;44154;45.506;-122.806;2023-02-28T04:36:03;98672.94;;;24.69;31.60
50854;BME280;44154;45.506;-122.806;2023-02-28T04:38:33;98694.28;;;24.67;31.50
50854;BME280;44154;45.506;-122.806;2023-02-28T04:41:00;98690.72;;;24.53;31.70
50854;BME280;44154;45.506;-122.806;2023-02-28T04:43:27;98676.16;;;24.30;31.85
50854;BME280;44154;45.506;-122.806;2023-02-28T04:45:54;98688.31;;;24.23;32.01
50854;BME280;44154;45.506;-122.806;2023-02-28T04:48:28;98696.91;;;24.17;32.07
50854;BME280;44154;45.506;-122.806;2023-02-28T04:50:55;98685.28;;;23.97;32.23
50854;BME280;44154;45.506;-122.806;2023-02-28T04:53:25;98696.50;;;23.96;32.35
50854;BME280;44154;45.506;-122.806;2023-02-28T04:55:51;98701.34;;;23.99;32.88
50854;BME280;44154;45.506;-122.806;2023-02-28T04:58:17;98705.81;;;24.22;33.01
50854;BME280;44154;45.506;-122.806;2023-02-28T05:00:43;98706.44;;;24.47;32.36
50854;BME280;44154;45.506;-122.806;2023-02-28T05:03:10;98706.94;;;24.77;31.60
50854;BME280;44154;45.506;-122.806;2023-02-28T05:05:36;98716.03;;;24.86;31.10
50854;BME280;44154;45.506;-122.806;2023-02-28T05:08:02;98712.41;;;24.77;31.11
50854;BME280;44154;45.506;-122.806;2023-02-28T05:10:28;98713.75;;;24.66;31.37
50854;BME280;44154;45.506;-122.806;2023-02-28T05:12:55;98722.63;;;24.57;31.27
50854;BME280;44154;45.506;-122.806;2023-02-28T05:15:21;98718.19;;;24.48;31.29
50854;BME280;44154;45.506;-122.806;2023-02-28T05:17:47;98728.00;;;24.35;31.35
50854;BME280;44154;45.506;-122.806;2023-02-28T05:20:13;98736.31;;;24.30;31.33
50854;BME280;44154;45.506;-122.806;2023-02-28T05:22:41;98737.81;;;24.22;31.61
50854;BME280;44154;45.506;-122.806;2023-02-28T05:25:12;98749.66;;;24.17;31.54
50854;BME280;44154;45.506;-122.806;2023-02-28T05:27:38;98755.44;;;24.30;31.99
50854;BME280;44154;45.506;-122.806;2023-02-28T05:30:06;98749.69;;;24.45;31.74
50854;BME280;44154;45.506;-122.806;2023-02-28T05:32:32;98753.53;;;24.86;31.21
50854;BME280;44154;45.506;-122.806;2023-02-28T05:34:58;98766.06;;;25.01;30.65
50854;BME280;44154;45.506;-122.806;2023-02-28T05:37:24;98754.56;;;24.90;30.54
50854;BME280;44154;45.506;-122.806;2023-02-28T05:39:50;98764.00;;;24.84;30.63
50854;BME280;44154;45.506;-122.806;2023-02-28T05:42:17;98768.13;;;24.67;30.65
50854;BME280;44154;45.506;-122.806;2023-02-28T05:44:43;98776.03;;;24.55;30.99
50854;BME280;44154;45.506;-122.806;2023-02-28T05:47:09;98770.53;;;24.41;30.99
50854;BME280;44154;45.506;-122.806;2023-02-28T05:49:36;98784.09;;;24.32;31.33
50854;BME280;44154;45.506;-122.806;2023-02-28T05:52:02;98785.09;;;24.22;31.18
50854;BME280;44154;45.506;-122.806;2023-02-28T05:54:28;98790.44;;;24.14;31.43
50854;BME280;44154;45.506;-122.806;2023-02-28T05:56:54;98795.66;;;24.29;31.57
50854;BME280;44154;45.506;-122.806;2023-02-28T05:59:20;98802.75;;;24.44;31.52
50854;BME280;44154;45.506;-122.806;2023-02-28T06:01:46;98805.09;;;24.65;31.31
50854;BME280;44154;45.506;-122.806;2023-02-28T06:04:17;98811.72;;;24.91;30.75
50854;BME280;44154;45.506;-122.806;2023-02-28T06:06:45;98814.53;;;24.86;30.55
50854;BME280;44154;45.506;-122.806;2023-02-28T06:09:11;98815.34;;;24.73;30.60
50854;BME280;44154;45.506;-122.806;2023-02-28T06:11:38;98824.25;;;24.65;30.60
50854;BME280;44154;45.506;-122.806;2023-02-28T06:14:04;98825.56;;;24.53;30.51
50854;BME280;44154;45.506;-122.806;2023-02-28T06:16:32;98819.75;;;24.41;30.78
50854;BME280;44154;45.506;-122.806;2023-02-28T06:19:01;98825.91;;;24.33;31.16
50854;BME280;44154;45.506;-122.806;2023-02-28T06:21:29;98824.75;;;24.20;31.41
50854;BME280;44154;45.506;-122.806;2023-02-28T06:23:56;98827.97;;;24.08;31.32
50854;BME280;44154;45.506;-122.806;2023-02-28T06:26:23;98816.41;;;23.97;31.94
50854;BME280;44154;45.506;-122.806;2023-02-28T06:28:49;98827.91;;;24.13;31.82
50854;BME280;44154;45.506;-122.806;2023-02-28T06:31:17;98824.44;;;24.54;31.10
50854;BME280;44154;45.506;-122.806;2023-02-28T06:33:45;98838.84;;;25.02;30.28
50854;BME280;44154;45.506;-122.806;2023-02-28T06:36:13;98821.41;;;25.11;30.05
50854;BME280;44154;45.506;-122.806;2023-02-28T06:38:40;98828.22;;;25.14;29.94
50854;BME280;44154;45.506;-122.806;2023-02-28T06:41:07;98824.88;;;25.03;30.03
50854;BME280;44154;45.506;-122.806;2023-02-28T06:43:37;98822.84;;;24.81;30.12
50854;BME280;44154;45.506;-122.806;2023-02-28T06:46:06;98840.69;;;24.79;29.91
50854;BME280;44154;45.506;-122.806;2023-02-28T06:48:34;98845.03;;;24.66;30.18
50854;BME280;44154;45.506;-122.806;2023-02-28T06:51:05;98843.25;;;24.56;30.26
50854;BME280;44154;45.506;-122.806;2023-02-28T06:53:32;98848.13;;;24.45;30.38
50854;BME280;44154;45.506;-122.806;2023-02-28T06:55:59;98856.22;;;24.36;30.42
50854;BME280;44154;45.506;-122.806;2023-02-28T06:58:25;98842.50;;;24.22;30.40
50854;BME280;44154;45.506;-122.806;2023-02-28T07:00:52;98853.59;;;24.45;30.53
50854;BME280;44154;45.506;-122.806;2023-02-28T07:03:20;98865.53;;;24.82;30.02
50854;BME280;44154;45.506;-122.806;2023-02-28T07:05:46;98867.94;;;24.98;29.55
50854;BME280;44154;45.506;-122.806;2023-02-28T07:08:13;98855.72;;;24.95;29.42
50854;BME280;44154;45.506;-122.806;2023-02-28T07:10:40;98853.44;;;24.83;29.74
50854;BME280;44154;45.506;-122.806;2023-02-28T07:13:08;98866.00;;;24.70;29.86
50854;BME280;44154;45.506;-122.806;2023-02-28T07:15:35;98869.50;;;24.57;29.90
50854;BME280;44154;45.506;-122.806;2023-02-28T07:18:02;98865.94;;;24.42;29.97
50854;BME280;44154;45.506;-122.806;2023-02-28T07:20:29;98897.53;;;24.35;30.12
50854;BME280;44154;45.506;-122.806;2023-02-28T07:22:55;98884.03;;;24.24;30.16
50854;BME280;44154;45.506;-122.806;2023-02-28T07:25:27;98884.69;;;24.16;30.40
50854;BME280;44154;45.506;-122.806;2023-02-28T07:27:54;98892.47;;;24.09;30.24
50854;BME280;44154;45.506;-122.806;2023-02-28T07:30:21;98893.06;;;24.06;30.46
50854;BME280;44154;45.506;-122.806;2023-02-28T07:32:48;98901.34;;;24.01;30.48
50854;BME280;44154;45.506;-122.806;2023-02-28T07:35:14;98909.31;;;23.97;30.46
50854;BME280;44154;45.506;-122.806;2023-02-28T07:37:42;98898.75;;;23.90;30.56
50854;BME280;44154;45.506;-122.806;2023-02-28T07:40:10;98900.44;;;23.86;30.50
50854;BME280;44154;45.506;-122.806;2023-02-28T07:42:40;98894.81;;;23.78;30.55
50854;BME280;44154;45.506;-122.806;2023-02-28T07:45:08;98911.44;;;23.81;30.62
50854;BME280;44154;45.506;-122.806;2023-02-28T07:47:41;98909.22;;;23.83;30.61
50854;BME280;44154;45.506;-122.806;2023-02-28T07:50:10;98910.03;;;24.22;30.27
50854;BME280;44154;45.506;-122.806;2023-02-28T07:52:37;98924.34;;;24.66;29.54
50854;BME280;44154;45.506;-122.806;2023-02-28T07:55:05;98928.25;;;24.92;29.23
50854;BME280;44154;45.506;-122.806;2023-02-28T07:57:31;98913.25;;;24.90;29.10
50854;BME280;44154;45.506;-122.806;2023-02-28T07:59:58;98917.09;;;24.75;29.13
50854;BME280;44154;45.506;-122.806;2023-02-28T08:02:24;98913.78;;;24.59;29.34
50854;BME280;44154;45.506;-122.806;2023-02-28T08:04:50;98917.59;;;24.44;29.47
50854;BME280;44154;45.506;-122.806;2023-02-28T08:07:17;98896.88;;;24.24;29.67
50854;BME280;44154;45.506;-122.806;2023-02-28T08:09:44;98923.78;;;24.17;29.88
50854;BME280;44154;45.506;-122.806;2023-02-28T08:12:11;98928.59;;;24.06;29.97
50854;BME280;44154;45.506;-122.806;2023-02-28T08:14:37;98933.03;;;24.02;29.98
50854;BME280;44154;45.506;-122.806;2023-02-28T08:17:05;98938.03;;;23.95;30.22
50854;BME280;44154;45.506;-122.806;2023-02-28T08:19:31;98952.91;;;23.88;30.36
50854;BME280;44154;45.506;-122.806;2023-02-28T08:21:58;98962.00;;;23.79;30.07
50854;BME280;44154;45.506;-122.806;2023-02-28T08:24:24;98958.81;;;23.71;30.22
50854;BME280;44154;45.506;-122.806;2023-02-28T08:26:50;98960.81;;;23.66;30.36
50854;BME280;44154;45.506;-122.806;2023-02-28T08:29:16;98968.53;;;23.59;30.47
50854;BME280;44154;45.506;-122.806;2023-02-28T08:31:43;98972.97;;;23.54;30.53
50854;BME280;44154;45.506;-122.806;2023-02-28T08:34:13;98959.25;;;23.60;30.84
50854;BME280;44154;45.506;-122.806;2023-02-28T08:36:40;98984.34;;;24.05;30.56
50854;BME280;44154;45.506;-122.806;2023-02-28T08:39:06;98983.81;;;24.41;29.78
50854;BME280;44154;45.506;-122.806;2023-02-28T08:41:33;99000.28;;;24.55;31.76
50854;BME280;44154;45.506;-122.806;2023-02-28T08:43:59;99004.06;;;24.59;33.09
50854;BME280;44154;45.506;-122.806;2023-02-28T08:46:25;99009.97;;;24.47;31.49
50854;BME280;44154;45.506;-122.806;2023-02-28T08:48:53;99002.81;;;24.13;31.98
50854;BME280;44154;45.506;-122.806;2023-02-28T08:51:20;99006.22;;;24.05;32.16
50854;BME280;44154;45.506;-122.806;2023-02-28T08:53:54;99006.28;;;24.00;32.40
50854;BME280;44154;45.506;-122.806;2023-02-28T08:56:21;99001.53;;;23.86;31.82
50854;BME280;44154;45.506;-122.806;2023-02-28T08:58:48;99013.00;;;23.88;32.31
50854;BME280;44154;45.506;-122.806;2023-02-28T09:01:17;99014.09;;;23.87;32.39
50854;BME280;44154;45.506;-122.806;2023-02-28T09:03:44;99018.50;;;23.83;32.43
50854;BME280;44154;45.506;-122.806;2023-02-28T09:06:12;99018.53;;;23.78;32.56
50854;BME280;44154;45.506;-122.806;2023-02-28T09:08:38;99022.56;;;23.62;32.71
50854;BME280;44154;45.506;-122.806;2023-02-28T09:11:05;99023.78;;;23.50;33.59
50854;BME280;44154;45.506;-122.806;2023-02-28T09:13:32;99026.06;;;23.43;33.90
50854;BME280;44154;45.506;-122.806;2023-02-28T09:15:59;99033.38;;;23.48;33.56
50854;BME280;44154;45.506;-122.806;2023-02-28T09:18:26;99026.69;;;23.59;33.63
50854;BME280;44154;45.506;-122.806;2023-02-28T09:20:53;99033.00;;;23.60;32.72
50854;BME280;44154;45.506;-122.806;2023-02-28T09:23:19;99036.81;;;23.59;32.90
50854;BME280;44154;45.506;-122.806;2023-02-28T09:25:53;99044.00;;;23.49;33.03
50854;BME280;44154;45.506;-122.806;2023-02-28T09:28:20;99043.13;;;23.30;33.04
50854;BME280;44154;45.506;-122.806;2023-02-28T09:30:49;99055.16;;;23.29;33.41
50854;BME280;44154;45.506;-122.806;2023-02-28T09:33:16;99065.88;;;23.20;33.58
50854;BME280;44154;45.506;-122.806;2023-02-28T09:35:44;99074.34;;;23.18;34.54
50854;BME280;44154;45.506;-122.806;2023-02-28T09:38:10;99071.34;;;23.20;34.61
50854;BME280;44154;45.506;-122.806;2023-02-28T09:40:50;99087.91;;;23.29;34.30
50854;BME280;44154;45.506;-122.806;2023-02-28T09:43:20;99099.47;;;23.45;33.60
50854;BME280;44154;45.506;-122.806;2023-02-28T09:46:47;99111.25;;;23.45;33.36
50854;BME280;44154;45.506;-122.806;2023-02-28T09:48:48;99134.22;;;23.39;33.40
50854;BME280;44154;45.506;-122.806;2023-02-28T09:54:02;99139.28;;;23.21;33.56
50854;BME280;44154;45.506;-122.806;2023-02-28T09:56:36;99130.09;;;23.12;33.80
50854;BME280;44154;45.506;-122.806;2023-02-28T09:59:24;99141.00;;;23.07;33.59
50854;BME280;44154;45.506;-122.806;2023-02-28T10:02:04;99130.03;;;23.17;34.35
50854;BME280;44154;45.506;-122.806;2023-02-28T10:05:11;99135.47;;;23.23;34.34
50854;BME280;44154;45.506;-122.806;2023-02-28T10:07:39;99139.09;;;23.42;33.63
50854;BME280;44154;45.506;-122.806;2023-02-28T10:10:24;99133.09;;;23.45;33.47
50854;BME280;44154;45.506;-122.806;2023-02-28T10:12:55;99148.41;;;23.41;33.43
50854;BME280;44154;45.506;-122.806;2023-02-28T10:15:24;99144.41;;;23.28;33.80
50854;BME280;44154;45.506;-122.806;2023-02-28T10:17:56;99146.69;;;23.16;33.83
50854;BME280;44154;45.506;-122.806;2023-02-28T10:20:24;99152.19;;;23.06;34.10
50854;BME280;44154;45.506;-122.806;2023-02-28T10:23:09;99144.38;;;22.94;34.33
50854;BME280;44154;45.506;-122.806;2023-02-28T10:25:38;99140.00;;;22.98;34.75
50854;BME280;44154;45.506;-122.806;2023-02-28T10:28:11;99136.63;;;23.06;34.36
50854;BME280;44154;45.506;-122.806;2023-02-28T10:30:45;99139.28;;;23.21;34.01
50854;BME280;44154;45.506;-122.806;2023-02-28T10:33:32;99136.94;;;23.39;33.46
50854;BME280;44154;45.506;-122.806;2023-02-28T10:36:00;99125.25;;;23.33;33.74
50854;BME280;44154;45.506;-122.806;2023-02-28T10:38:38;99139.19;;;23.32;33.58
50854;BME280;44154;45.506;-122.806;2023-02-28T10:41:11;99143.34;;;23.24;33.64
50854;BME280;44154;45.506;-122.806;2023-02-28T10:43:39;99140.16;;;23.12;33.81
50854;BME280;44154;45.506;-122.806;2023-02-28T10:48:44;99111.28;;;22.66;34.46
50854;BME280;44154;45.506;-122.806;2023-02-28T10:51:16;99158.22;;;23.02;34.32
50854;BME280;44154;45.506;-122.806;2023-02-28T10:53:47;99155.16;;;23.14;34.00
50854;BME280;44154;45.506;-122.806;2023-02-28T10:56:24;99150.41;;;23.30;33.54
50854;BME280;44154;45.506;-122.806;2023-02-28T10:59:29;99160.16;;;23.36;33.29
50854;BME280;44154;45.506;-122.806;2023-02-28T11:01:56;99151.47;;;23.34;33.34
50854;BME280;44154;45.506;-122.806;2023-02-28T11:09:39;99159.81;;;23.14;33.56
50854;BME280;44154;45.506;-122.806;2023-02-28T11:15:00;99185.22;;;23.09;33.92
50854;BME280;44154;45.506;-122.806;2023-02-28T11:17:30;99190.91;;;23.18;33.85
50854;BME280;44154;45.506;-122.806;2023-02-28T11:19:59;99183.97;;;23.31;33.51
50854;BME280;44154;45.506;-122.806;2023-02-28T11:22:32;99177.59;;;23.41;32.93
50854;BME280;44154;45.506;-122.806;2023-02-28T11:25:07;99188.78;;;23.44;33.07
50854;BME280;44154;45.506;-122.806;2023-02-28T11:27:56;99184.22;;;23.34;33.20
50854;BME280;44154;45.506;-122.806;2023-02-28T11:32:49;99186.53;;;23.17;33.42
50854;BME280;44154;45.506;-122.806;2023-02-28T11:37:52;99175.16;;;22.99;33.75
50854;BME280;44154;45.506;-122.806;2023-02-28T11:40:22;99177.81;;;23.10;33.90
50854;BME280;44154;45.506;-122.806;2023-02-28T11:45:57;99183.34;;;23.39;33.15
50854;BME280;44154;45.506;-122.806;2023-02-28T11:53:59;99166.47;;;23.32;33.09
50854;BME280;44154;45.506;-122.806;2023-02-28T11:56:39;99164.13;;;23.20;33.16
50854;BME280;44154;45.506;-122.806;2023-02-28T11:59:36;99168.00;;;23.09;33.44
50854;BME280;44154;45.506;-122.806;2023-02-28T12:02:26;99166.69;;;23.01;33.18
50854;BME280;44154;45.506;-122.806;2023-02-28T12:10:37;99156.63;;;23.36;33.15
50854;BME280;44154;45.506;-122.806;2023-02-28T12:13:41;99145.88;;;23.50;32.79
50854;BME280;44154;45.506;-122.806;2023-02-28T12:16:27;99140.44;;;23.45;32.73
50854;BME280;44154;45.506;-122.806;2023-02-28T12:27:00;99145.38;;;23.03;33.42
50854;BME280;44154;45.506;-122.806;2023-02-28T12:29:39;99148.13;;;23.03;33.62
50854;BME280;44154;45.506;-122.806;2023-02-28T12:32:36;99158.97;;;23.13;33.70
50854;BME280;44154;45.506;-122.806;2023-02-28T12:35:13;99151.84;;;23.23;33.49
50854;BME280;44154;45.506;-122.806;2023-02-28T12:40:41;99159.53;;;23.50;32.69
50854;BME280;44154;45.506;-122.806;2023-02-28T12:43:13;99159.84;;;23.43;32.86
50854;BME280;44154;45.506;-122.806;2023-02-28T12:48:20;99158.09;;;23.23;32.93
50854;BME280;44154;45.506;-122.806;2023-02-28T12:50:48;99168.28;;;23.12;33.02
50854;BME280;44154;45.506;-122.806;2023-02-28T12:58:47;99173.97;;;23.21;33.42
50854;BME280;44154;45.506;-122.806;2023-02-28T13:09:21;99164.78;;;23.41;32.70
50854;BME280;44154;45.506;-122.806;2023-02-28T13:11:52;99165.69;;;23.31;32.76
50854;BME280;44154;45.506;-122.806;2023-02-28T13:19:34;99163.13;;;23.06;33.08
50854;BME280;44154;45.506;-122.806;2023-02-28T13:22:02;99167.72;;;23.15;33.26
50854;BME280;44154;45.506;-122.806;2023-02-28T13:24:39;99156.72;;;23.26;33.32
50854;BME280;44154;45.506;-122.806;2023-02-28T13:29:36;99167.44;;;23.46;32.60
50854;BME280;44154;45.506;-122.806;2023-02-28T13:34:33;99164.25;;;23.39;32.54
50854;BME280;44154;45.506;-122.806;2023-02-28T13:50:26;99161.13;;;23.80;31.89
50854;BME280;44154;45.506;-122.806;2023-02-28T13:58:42;99164.25;;;23.39;32.75
50854;BME280;44154;45.506;-122.806;2023-02-28T14:06:48;99167.50;;;23.70;32.48
50854;BME280;44154;45.506;-122.806;2023-02-28T14:09:30;99161.63;;;23.87;32.07
50854;BME280;44154;45.506;-122.806;2023-02-28T14:12:50;99166.50;;;23.90;31.88
50854;BME280;44154;45.506;-122.806;2023-02-28T14:17:16;99167.75;;;23.74;32.05
50854;BME280;44154;45.506;-122.806;2023-02-28T14:19:46;99155.94;;;23.49;32.33
50854;BME280;44154;45.506;-122.806;2023-02-28T14:25:33;99164.44;;;23.48;32.78
50854;BME280;44154;45.506;-122.806;2023-02-28T14:31:13;99168.75;;;23.83;32.16
50854;BME280;44154;45.506;-122.806;2023-02-28T14:36:45;99161.84;;;23.91;31.87
50854;BME280;44154;45.506;-122.806;2023-02-28T14:39:21;99166.59;;;23.80;31.89
50854;BME280;44154;45.506;-122.806;2023-02-28T14:41:48;99168.09;;;23.67;32.16
50854;BME280;44154;45.506;-122.806;2023-02-28T14:46:45;99173.75;;;23.47;32.60
50854;BME280;44154;45.506;-122.806;2023-02-28T14:52:22;99172.97;;;24.00;31.97
50854;BME280;44154;45.506;-122.806;2023-02-28T14:55:13;99170.56;;;24.41;31.00
50854;BME280;44154;45.506;-122.806;2023-02-28T14:57:42;99173.69;;;24.54;30.70
50854;BME280;44154;45.506;-122.806;2023-02-28T15:00:20;99168.06;;;24.45;30.87